createdAt,value
2023-04-15T00:01:52.492Z,12.87
2023-04-15T00:04:19.319Z,12.97
2023-04-15T00:06:55.409Z,13.01
2023-04-15T00:09:22.105Z,13.18
2023-04-15T00:11:50.315Z,13.12
2023-04-15T00:14:17.518Z,12.34
2023-04-15T00:16:44.329Z,12.51
2023-04-15T00:19:11.301Z,12.76
2023-04-15T00:21:37.998Z,13.04
2023-04-15T00:24:04.645Z,13.20
2023-04-15T00:26:31.333Z,13.35
2023-04-15T00:28:58.458Z,12.56
2023-04-15T00:31:25.528Z,12.72
2023-04-15T00:33:52.593Z,13.04
2023-04-15T00:36:19.509Z,12.81
2023-04-15T00:38:46.618Z,13.23
2023-04-15T00:41:13.322Z,13.26
2023-04-15T00:43:40.110Z,13.43
2023-04-15T00:46:07.931Z,13.27
2023-04-15T00:48:34.793Z,13.23
2023-04-15T00:51:02.068Z,12.82
2023-04-15T00:53:28.961Z,12.75
2023-04-15T00:55:56.272Z,12.81
2023-04-15T00:58:23.925Z,13.02
2023-04-15T01:00:54.336Z,12.90
2023-04-15T01:03:21.368Z,12.95
2023-04-15T01:05:48.801Z,13.23
2023-04-15T01:08:15.536Z,13.00
2023-04-15T01:10:42.313Z,13.12
2023-04-15T01:13:09.252Z,13.19
2023-04-15T01:15:36.214Z,13.32
2023-04-15T01:18:03.250Z,13.35
2023-04-15T01:20:29.898Z,13.42
2023-04-15T01:22:56.793Z,13.23
2023-04-15T01:25:42.529Z,13.21
2023-04-15T01:28:09.885Z,13.08
2023-04-15T01:30:36.987Z,13.12
2023-04-15T01:33:04.116Z,12.26
2023-04-15T01:35:31.097Z,12.36
2023-04-15T01:38:03.733Z,12.63
2023-04-15T01:40:30.863Z,12.92
2023-04-15T01:42:58.532Z,12.95
2023-04-15T01:45:25.343Z,13.00
2023-04-15T01:47:52.064Z,13.04
2023-04-15T01:50:19.060Z,13.12
2023-04-15T01:52:45.678Z,13.05
2023-04-15T01:55:13.268Z,13.23
2023-04-15T01:57:40.193Z,12.92
2023-04-15T02:00:07.841Z,12.82
2023-04-15T02:02:41.008Z,12.78
2023-04-15T02:05:08.083Z,12.88
2023-04-15T02:07:34.731Z,12.83
2023-04-15T02:10:02.880Z,12.60
2023-04-15T02:12:29.584Z,12.86
2023-04-15T02:14:56.769Z,12.89
2023-04-15T02:17:23.452Z,12.92
2023-04-15T02:19:50.337Z,12.79
2023-04-15T02:22:18.981Z,12.73
2023-04-15T02:24:47.079Z,12.67
2023-04-15T02:27:18.244Z,12.55
2023-04-15T02:29:45.798Z,12.58
2023-04-15T02:32:15.591Z,12.09
2023-04-15T02:34:42.897Z,12.24
2023-04-15T02:37:11.388Z,12.33
2023-04-15T02:39:39.191Z,12.40
2023-04-15T02:42:08.968Z,12.33
2023-04-15T02:44:36.872Z,12.14
2023-04-15T02:47:07.147Z,12.08
2023-04-15T02:49:34.081Z,12.26
2023-04-15T02:52:00.719Z,12.04
2023-04-15T02:54:30.484Z,12.02
2023-04-15T02:56:57.440Z,12.10
2023-04-15T02:59:24.212Z,12.17
2023-04-15T03:01:51.929Z,11.82
2023-04-15T03:04:18.898Z,11.65
2023-04-15T03:06:45.511Z,11.36
2023-04-15T03:09:12.482Z,11.60
2023-04-15T03:11:40.819Z,11.59
2023-04-15T03:14:09.559Z,11.27
2023-04-15T03:16:40.162Z,11.46
2023-04-15T03:19:06.905Z,10.81
2023-04-15T03:21:34.543Z,11.26
2023-04-15T03:24:01.607Z,11.23
2023-04-15T03:26:32.233Z,11.26
2023-04-15T03:29:02.534Z,11.11
2023-04-15T03:31:29.949Z,11.09
2023-04-15T03:33:56.694Z,10.76
2023-04-15T03:36:23.841Z,10.85
2023-04-15T03:38:50.485Z,10.96
2023-04-15T03:41:17.549Z,10.53
2023-04-15T03:43:44.240Z,10.81
2023-04-15T03:46:11.192Z,10.90
2023-04-15T03:48:37.916Z,10.77
2023-04-15T03:51:04.683Z,10.83
2023-04-15T03:53:31.414Z,11.01
2023-04-15T03:55:59.078Z,10.82
2023-04-15T03:58:25.903Z,10.58
2023-04-15T04:00:52.846Z,10.88
2023-04-15T04:03:21.487Z,11.04
2023-04-15T04:05:48.490Z,10.91
2023-04-15T04:08:16.404Z,11.12
2023-04-15T04:10:43.145Z,10.82
2023-04-15T04:13:09.844Z,10.39
2023-04-15T04:15:36.607Z,10.64
2023-04-15T04:18:03.832Z,10.46
2023-04-15T04:20:32.141Z,10.22
2023-04-15T04:22:59.807Z,10.22
2023-04-15T04:25:27.360Z,10.11
2023-04-15T04:27:53.891Z,10.43
2023-04-15T04:30:20.520Z,10.60
2023-04-15T04:32:47.301Z,10.76
2023-04-15T04:35:14.035Z,11.01
2023-04-15T04:37:40.833Z,10.92
2023-04-15T04:40:08.170Z,11.27
2023-04-15T04:42:35.707Z,11.54
2023-04-15T04:45:03.581Z,11.61
2023-04-15T04:47:31.283Z,11.65
2023-04-15T04:49:57.905Z,11.85
2023-04-15T04:52:24.544Z,11.90
2023-04-15T04:54:51.114Z,11.98
2023-04-15T04:57:17.948Z,12.11
2023-04-15T04:59:44.666Z,12.23
2023-04-15T05:02:11.510Z,12.30
2023-04-15T05:04:38.246Z,12.39
2023-04-15T05:07:04.880Z,12.43
2023-04-15T05:09:32.582Z,12.63
2023-04-15T05:11:59.490Z,12.69
2023-04-15T05:14:26.203Z,12.97
2023-04-15T05:16:52.752Z,12.90
2023-04-15T05:19:19.591Z,13.07
2023-04-15T05:21:46.234Z,12.19
2023-04-15T05:24:12.983Z,12.40
2023-04-15T05:26:39.573Z,12.82
2023-04-15T05:29:06.390Z,13.12
2023-04-15T05:31:33.098Z,12.95
2023-04-15T05:34:00.228Z,12.48
2023-04-15T05:36:27.805Z,13.04
2023-04-15T05:38:54.434Z,13.27
2023-04-15T05:41:21.662Z,13.54
2023-04-15T05:43:48.353Z,13.58
2023-04-15T05:46:15.114Z,13.51
2023-04-15T05:48:41.797Z,13.68
2023-04-15T05:51:08.489Z,13.86
2023-04-15T05:53:35.236Z,13.98
2023-04-15T05:56:02.115Z,14.04
2023-04-15T05:58:32.488Z,13.96
2023-04-15T06:01:05.386Z,13.66
2023-04-15T06:03:32.216Z,14.09
2023-04-15T06:05:58.969Z,14.10
2023-04-15T06:08:25.983Z,14.17
2023-04-15T06:10:52.778Z,14.46
2023-04-15T06:13:19.466Z,14.79
2023-04-15T06:15:46.097Z,14.99
2023-04-15T06:18:13.153Z,14.85
2023-04-15T06:20:39.801Z,15.09
2023-04-15T06:23:06.861Z,14.97
2023-04-15T06:25:33.574Z,14.69
2023-04-15T06:28:00.327Z,14.93
2023-04-15T06:30:27.049Z,14.80
2023-04-15T06:32:55.221Z,14.58
2023-04-15T06:35:22.231Z,14.55
2023-04-15T06:37:48.913Z,13.97
2023-04-15T06:40:15.586Z,13.97
2023-04-15T06:42:42.370Z,14.22
2023-04-15T06:45:09.500Z,14.02
2023-04-15T06:47:36.335Z,14.16
2023-04-15T06:50:04.039Z,14.72
2023-04-15T06:52:31.670Z,14.81
2023-04-15T06:54:59.736Z,14.49
2023-04-15T06:57:26.447Z,14.80
2023-04-15T06:59:54.689Z,15.39
2023-04-15T07:02:21.529Z,15.88
2023-04-15T07:04:48.958Z,15.65
2023-04-15T07:07:16.938Z,15.95
2023-04-15T07:09:45.708Z,15.64
2023-04-15T07:12:12.299Z,15.84
2023-04-15T07:14:39.001Z,15.87
2023-04-15T07:17:05.681Z,15.92
2023-04-15T07:19:32.391Z,16.08
2023-04-15T07:21:59.130Z,15.72
2023-04-15T07:24:26.870Z,16.13
2023-04-15T07:27:00.833Z,16.19
2023-04-15T07:29:28.043Z,16.53
2023-04-15T07:31:54.801Z,16.37
2023-04-15T07:34:21.494Z,16.14
2023-04-15T07:36:52.151Z,16.85
2023-04-15T07:39:19.069Z,17.45
2023-04-15T07:41:46.599Z,16.98
2023-04-15T07:44:13.294Z,16.81
2023-04-15T07:46:40.101Z,16.66
2023-04-15T07:49:07.572Z,16.77
2023-04-15T07:51:34.214Z,16.93
2023-04-15T07:54:00.806Z,16.17
2023-04-15T07:56:27.836Z,16.55
2023-04-15T07:58:54.521Z,16.94
2023-04-15T08:01:21.667Z,16.83
2023-04-15T08:03:48.673Z,16.93
2023-04-15T08:06:15.584Z,17.30
2023-04-15T08:08:43.121Z,17.87
2023-04-15T08:11:10.962Z,17.58
2023-04-15T08:13:37.585Z,17.84
2023-04-15T08:16:14.742Z,17.86
2023-04-15T08:18:41.904Z,17.36
2023-04-15T08:21:09.393Z,17.55
2023-04-15T08:23:36.168Z,17.92
2023-04-15T08:26:02.815Z,18.31
2023-04-15T08:28:29.552Z,18.49
2023-04-15T08:30:56.250Z,18.96
2023-04-15T08:33:23.004Z,18.32
2023-04-15T08:35:49.749Z,18.90
2023-04-15T08:38:16.902Z,18.89
2023-04-15T08:40:44.945Z,19.08
2023-04-15T08:43:13.365Z,18.97
2023-04-15T08:45:40.021Z,19.62
2023-04-15T08:48:08.772Z,19.32
2023-04-15T08:50:35.437Z,19.40
2023-04-15T08:53:02.064Z,19.31
2023-04-15T08:55:30.804Z,19.30
2023-04-15T08:57:57.479Z,19.78
2023-04-15T09:00:24.123Z,19.60
2023-04-15T09:02:51.129Z,19.76
2023-04-15T09:05:17.888Z,20.18
2023-04-15T09:07:44.528Z,20.01
2023-04-15T09:10:11.349Z,19.65
2023-04-15T09:12:38.261Z,20.05
2023-04-15T09:15:05.182Z,19.94
2023-04-15T09:17:33.364Z,19.55
2023-04-15T09:20:20.375Z,19.56
2023-04-15T09:22:48.403Z,20.04
2023-04-15T09:25:14.930Z,19.88
2023-04-15T09:27:51.649Z,20.24
2023-04-15T09:30:18.783Z,20.25
2023-04-15T09:33:08.174Z,20.35
2023-04-15T09:35:37.691Z,20.22
2023-04-15T09:38:05.822Z,20.47
2023-04-15T09:40:34.436Z,20.47
2023-04-15T09:43:05.208Z,20.75
2023-04-15T09:45:32.543Z,20.49
2023-04-15T09:47:59.807Z,20.19
2023-04-15T09:50:29.602Z,20.67
2023-04-15T09:52:56.525Z,20.87
2023-04-15T09:55:23.179Z,20.56
2023-04-15T09:57:49.917Z,20.83
2023-04-15T10:00:16.779Z,20.93
2023-04-15T10:02:47.525Z,21.41
2023-04-15T10:05:15.646Z,21.15
2023-04-15T10:07:42.863Z,21.52
2023-04-15T10:10:10.963Z,20.89
2023-04-15T10:12:38.265Z,21.09
2023-04-15T10:15:05.597Z,20.91
2023-04-15T10:17:37.099Z,20.90
2023-04-15T10:20:05.378Z,20.63
2023-04-15T10:22:32.960Z,21.26
2023-04-15T10:25:02.567Z,21.11
2023-04-15T10:27:29.377Z,21.44
2023-04-15T10:29:57.209Z,21.39
2023-04-15T10:32:25.624Z,21.73
2023-04-15T10:34:54.444Z,21.87
2023-04-15T10:37:41.592Z,21.46
2023-04-15T10:40:38.451Z,21.83
2023-04-15T10:43:05.429Z,21.72
2023-04-15T10:45:33.509Z,21.45
2023-04-15T10:48:03.629Z,22.33
2023-04-15T10:50:34.015Z,21.58
2023-04-15T10:53:03.581Z,21.60
2023-04-15T10:55:33.520Z,21.82
2023-04-15T10:58:04.069Z,21.58
2023-04-15T11:00:32.174Z,21.74
2023-04-15T11:03:12.222Z,22.30
2023-04-15T11:05:42.196Z,22.12
2023-04-15T11:08:09.240Z,21.72
2023-04-15T11:10:35.898Z,21.17
2023-04-15T11:13:15.042Z,21.47
2023-04-15T11:15:44.871Z,21.54
2023-04-15T11:18:13.423Z,21.96
2023-04-15T11:20:41.473Z,21.81
2023-04-15T11:23:15.007Z,21.75
2023-04-15T11:25:43.296Z,22.67
2023-04-15T11:28:11.084Z,23.05
2023-04-15T11:30:38.860Z,22.58
2023-04-15T11:33:09.259Z,23.14
2023-04-15T11:35:36.112Z,23.21
2023-04-15T11:38:03.894Z,22.40
2023-04-15T11:40:31.422Z,22.17
2023-04-15T11:43:24.354Z,22.95
2023-04-15T11:46:01.145Z,23.53
2023-04-15T11:48:29.204Z,22.73
2023-04-15T11:50:56.978Z,22.11
2023-04-15T11:53:24.257Z,22.57
2023-04-15T11:55:52.186Z,22.40
2023-04-15T11:58:40.477Z,23.09
2023-04-15T12:01:08.925Z,23.54
2023-04-15T12:03:49.632Z,22.39
2023-04-15T12:06:19.460Z,22.96
2023-04-15T12:08:55.468Z,23.42
2023-04-15T12:11:31.660Z,23.20
2023-04-15T12:13:59.710Z,22.51
2023-04-15T12:16:28.092Z,21.66
2023-04-15T12:18:56.284Z,21.50
2023-04-15T12:21:24.101Z,21.72
2023-04-15T12:23:54.843Z,22.49
2023-04-15T12:26:33.651Z,21.78
2023-04-15T12:29:10.956Z,21.89
2023-04-15T12:31:38.267Z,22.40
2023-04-15T12:34:08.053Z,21.47
2023-04-15T12:36:37.390Z,21.87
2023-04-15T12:39:04.897Z,21.79
2023-04-15T12:41:32.119Z,22.18
2023-04-15T12:43:59.244Z,22.20
2023-04-15T12:46:26.075Z,22.39
2023-04-15T12:48:53.418Z,22.58
2023-04-15T12:51:21.835Z,21.89
2023-04-15T12:53:49.745Z,22.06
2023-04-15T12:56:17.033Z,22.25
2023-04-15T12:58:44.845Z,21.58
2023-04-15T13:01:11.704Z,22.00
2023-04-15T13:03:38.709Z,22.13
2023-04-15T13:06:06.098Z,22.08
2023-04-15T13:08:33.239Z,21.94
2023-04-15T13:11:00.474Z,21.74
2023-04-15T13:13:27.474Z,21.68
2023-04-15T13:15:54.073Z,21.87
2023-04-15T13:18:20.831Z,23.00
2023-04-15T13:20:47.663Z,23.54
2023-04-15T13:23:14.874Z,22.71
2023-04-15T13:25:41.561Z,22.87
2023-04-15T13:28:08.196Z,23.08
2023-04-15T13:30:34.923Z,22.91
2023-04-15T13:33:01.674Z,22.99
2023-04-15T13:35:29.761Z,23.19
2023-04-15T13:37:56.525Z,23.06
2023-04-15T13:40:23.157Z,22.72
2023-04-15T13:42:51.941Z,22.73
2023-04-15T13:45:18.498Z,23.03
2023-04-15T13:47:45.395Z,23.36
2023-04-15T13:50:12.140Z,23.03
2023-04-15T13:52:39.981Z,22.99
2023-04-15T13:55:19.457Z,23.78
2023-04-15T13:57:47.992Z,23.58
2023-04-15T14:00:14.935Z,22.71
2023-04-15T14:02:42.449Z,23.31
2023-04-15T14:05:09.755Z,23.59
2023-04-15T14:07:36.621Z,22.94
2023-04-15T14:10:04.025Z,24.17
2023-04-15T14:12:30.903Z,23.50
2023-04-15T14:14:57.668Z,23.39
2023-04-15T14:17:24.331Z,23.40
2023-04-15T14:19:51.151Z,23.33
2023-04-15T14:22:18.978Z,24.37
2023-04-15T14:24:45.786Z,23.65
2023-04-15T14:27:13.509Z,24.05
2023-04-15T14:29:40.168Z,23.44
2023-04-15T14:32:12.021Z,24.51
2023-04-15T14:34:39.693Z,24.30
2023-04-15T14:37:06.565Z,24.06
2023-04-15T14:39:34.158Z,23.81
2023-04-15T14:42:01.458Z,24.35
2023-04-15T14:44:28.232Z,24.53
2023-04-15T14:46:55.900Z,24.19
2023-04-15T14:49:22.932Z,25.32
2023-04-15T14:51:49.677Z,25.44
2023-04-15T14:54:16.736Z,25.81
2023-04-15T14:56:43.478Z,25.40
2023-04-15T14:59:10.154Z,25.17
2023-04-15T15:01:37.090Z,25.33
2023-04-15T15:04:04.206Z,25.38
2023-04-15T15:06:31.613Z,25.39
2023-04-15T15:08:58.304Z,24.87
2023-04-15T15:11:25.538Z,24.88
2023-04-15T15:13:52.198Z,25.12
2023-04-15T15:16:19.070Z,25.19
2023-04-15T15:18:46.728Z,25.23
2023-04-15T15:21:13.342Z,25.46
2023-04-15T15:23:39.975Z,25.67
2023-04-15T15:26:06.793Z,25.85
2023-04-15T15:28:34.018Z,25.95
2023-04-15T15:31:00.805Z,26.06
2023-04-15T15:33:30.130Z,25.96
2023-04-15T15:35:58.007Z,25.91
2023-04-15T15:38:24.587Z,25.62
2023-04-15T15:40:52.168Z,24.27
2023-04-15T15:43:18.780Z,24.09
2023-04-15T15:45:45.767Z,24.14
2023-04-15T15:48:12.384Z,23.98
2023-04-15T15:50:39.251Z,24.09
2023-04-15T15:53:05.924Z,23.65
2023-04-15T15:55:32.753Z,23.97
2023-04-15T15:57:59.524Z,23.71
2023-04-15T16:00:26.500Z,23.80
2023-04-15T16:03:06.812Z,23.16
2023-04-15T16:05:34.803Z,23.59
2023-04-15T16:08:01.879Z,23.63
2023-04-15T16:10:28.907Z,23.76
2023-04-15T16:12:55.869Z,23.69
2023-04-15T16:15:23.132Z,23.59
2023-04-15T16:17:49.874Z,23.53
2023-04-15T16:20:16.793Z,23.38
2023-04-15T16:22:43.743Z,23.34
2023-04-15T16:25:10.617Z,23.17
2023-04-15T16:27:54.164Z,22.71
2023-04-15T16:30:24.199Z,23.28
2023-04-15T16:32:51.507Z,23.24
2023-04-15T16:35:18.548Z,23.55
2023-04-15T16:37:45.384Z,23.61
2023-04-15T16:40:12.226Z,23.29
2023-04-15T16:42:39.861Z,23.41
2023-04-15T16:45:06.661Z,23.16
2023-04-15T16:47:33.490Z,23.10
2023-04-15T16:50:00.137Z,23.17
2023-04-15T16:52:29.042Z,23.26
2023-04-15T16:54:55.980Z,23.40
2023-04-15T16:57:23.707Z,22.98
2023-04-15T16:59:52.452Z,23.09
2023-04-15T17:02:20.207Z,22.94
2023-04-15T17:04:47.052Z,22.84
2023-04-15T17:07:13.728Z,22.95
2023-04-15T17:09:40.801Z,22.85
2023-04-15T17:12:07.498Z,22.48
2023-04-15T17:14:35.101Z,22.55
2023-04-15T17:17:02.026Z,22.57
2023-04-15T17:19:29.822Z,22.50
2023-04-15T17:21:58.148Z,22.56
2023-04-15T17:24:27.927Z,22.42
2023-04-15T17:26:54.827Z,22.17
2023-04-15T17:29:21.542Z,22.25
2023-04-15T17:31:48.238Z,22.10
2023-04-15T17:34:16.027Z,21.79
2023-04-15T17:36:42.930Z,21.91
2023-04-15T17:39:09.801Z,21.75
2023-04-15T17:41:36.414Z,21.74
2023-04-15T17:44:03.458Z,21.43
2023-04-15T17:46:30.892Z,21.70
2023-04-15T17:48:57.682Z,21.77
2023-04-15T17:51:24.314Z,21.78
2023-04-15T17:54:06.746Z,21.86
2023-04-15T17:56:34.022Z,21.87
2023-04-15T17:59:02.572Z,21.43
2023-04-15T18:01:29.481Z,21.37
2023-04-15T18:03:56.518Z,21.29
2023-04-15T18:06:23.570Z,21.49
2023-04-15T18:08:50.321Z,21.45
2023-04-15T18:11:17.732Z,21.70
2023-04-15T18:13:44.291Z,21.37
2023-04-15T18:16:11.305Z,21.17
2023-04-15T18:18:37.879Z,21.18
2023-04-15T18:21:04.724Z,21.09
2023-04-15T18:23:31.365Z,21.23
2023-04-15T18:25:58.134Z,21.03
2023-04-15T18:28:24.774Z,21.20
2023-04-15T18:30:51.528Z,21.04
2023-04-15T18:33:18.259Z,20.64
2023-04-15T18:35:44.935Z,20.45
2023-04-15T18:38:11.633Z,20.47
2023-04-15T18:40:38.300Z,20.33
2023-04-15T18:43:04.942Z,20.37
2023-04-15T18:45:31.725Z,20.24
2023-04-15T18:47:58.561Z,20.39
2023-04-15T18:50:25.183Z,20.39
2023-04-15T18:52:51.918Z,20.56
2023-04-15T18:55:19.259Z,20.64
2023-04-15T18:57:46.703Z,20.76
2023-04-15T19:00:16.028Z,20.48
2023-04-15T19:02:43.331Z,20.39
2023-04-15T19:05:10.452Z,20.29
2023-04-15T19:07:37.298Z,20.46
2023-04-15T19:10:06.863Z,20.32
2023-04-15T19:12:33.962Z,19.84
2023-04-15T19:15:01.780Z,19.83
2023-04-15T19:17:28.579Z,19.79
2023-04-15T19:19:56.251Z,19.78
2023-04-15T19:22:23.193Z,19.54
2023-04-15T19:24:51.896Z,19.46
2023-04-15T19:27:18.640Z,19.07
2023-04-15T19:29:45.445Z,19.27
2023-04-15T19:32:13.996Z,19.35
2023-04-15T19:34:41.292Z,19.36
2023-04-15T19:37:07.859Z,19.38
2023-04-15T19:39:34.796Z,19.17
2023-04-15T19:42:02.722Z,19.38
2023-04-15T19:44:29.591Z,19.45
2023-04-15T19:46:56.635Z,18.88
2023-04-15T19:49:23.267Z,19.28
2023-04-15T19:51:50.443Z,19.47
2023-04-15T19:54:17.097Z,19.33
2023-04-15T19:56:43.805Z,19.31
2023-04-15T19:59:12.664Z,19.35
2023-04-15T20:01:39.925Z,19.24
2023-04-15T20:04:06.996Z,19.39
2023-04-15T20:06:33.878Z,19.52
2023-04-15T20:09:01.096Z,19.42
2023-04-15T20:12:47.477Z,19.21
2023-04-15T20:14:15.816Z,19.16
2023-04-15T20:16:43.046Z,19.27
2023-04-15T20:19:14.159Z,19.05
2023-04-15T20:21:40.866Z,19.09
2023-04-15T20:24:07.632Z,19.16
2023-04-15T20:26:34.478Z,19.14
2023-04-15T20:29:01.094Z,19.19
2023-04-15T20:31:27.998Z,18.94
2023-04-15T20:33:54.797Z,18.97
2023-04-15T20:36:21.593Z,18.80
2023-04-15T20:38:48.240Z,19.08
2023-04-15T20:41:15.490Z,19.20
2023-04-15T20:43:42.043Z,19.40
2023-04-15T20:46:17.850Z,19.44
2023-04-15T20:48:47.646Z,19.34
2023-04-15T20:51:15.296Z,19.19
2023-04-15T20:53:42.234Z,19.21
2023-04-15T20:56:08.888Z,19.05
2023-04-15T20:58:35.609Z,19.06
2023-04-15T21:01:02.368Z,19.10
2023-04-15T21:03:29.370Z,19.07
2023-04-15T21:05:56.164Z,19.13
2023-04-15T21:08:29.244Z,18.92
2023-04-15T21:10:56.804Z,18.45
2023-04-15T21:13:23.463Z,18.77
2023-04-15T21:15:53.413Z,18.55
2023-04-15T21:18:21.072Z,18.53
2023-04-15T21:21:09.322Z,18.62
2023-04-15T21:23:36.082Z,18.03
2023-04-15T21:26:02.669Z,17.83
2023-04-15T21:28:29.994Z,17.65
2023-04-15T21:30:56.986Z,18.22
2023-04-15T21:33:24.272Z,18.43
2023-04-15T21:35:51.369Z,18.44
2023-04-15T21:38:18.222Z,18.45
2023-04-15T21:40:44.843Z,18.40
2023-04-15T21:43:11.711Z,18.39
2023-04-15T21:45:43.686Z,18.36
2023-04-15T21:48:30.556Z,18.56
2023-04-15T21:51:00.671Z,18.72
2023-04-15T21:53:27.346Z,18.53
2023-04-15T21:55:54.088Z,18.27
2023-04-15T21:58:20.876Z,18.56
2023-04-15T22:00:47.666Z,18.55
2023-04-15T22:03:14.753Z,18.50
2023-04-15T22:05:44.007Z,18.12
2023-04-15T22:08:10.852Z,17.55
2023-04-15T22:10:38.717Z,17.97
2023-04-15T22:13:08.660Z,17.82
2023-04-15T22:15:36.258Z,17.51
2023-04-15T22:18:04.626Z,17.74
2023-04-15T22:20:31.722Z,18.14
2023-04-15T22:22:58.384Z,17.82
2023-04-15T22:25:25.115Z,18.13
2023-04-15T22:27:51.812Z,18.23
2023-04-15T22:30:18.537Z,18.18
2023-04-15T22:32:46.351Z,18.23
2023-04-15T22:35:12.989Z,18.54
2023-04-15T22:37:39.831Z,18.57
2023-04-15T22:40:06.649Z,18.53
2023-04-15T22:42:33.469Z,18.49
2023-04-15T22:45:00.112Z,18.53
2023-04-15T22:47:27.088Z,18.48
2023-04-15T22:49:53.798Z,18.44
2023-04-15T22:52:30.025Z,18.15
2023-04-15T22:54:58.086Z,18.32
2023-04-15T22:57:24.762Z,18.22
2023-04-15T22:59:51.394Z,18.43
2023-04-15T23:02:18.208Z,18.44
2023-04-15T23:04:45.487Z,18.24
2023-04-15T23:07:12.256Z,18.32
2023-04-15T23:09:39.328Z,18.18
2023-04-15T23:12:07.268Z,18.26
2023-04-15T23:14:33.767Z,18.25
2023-04-15T23:17:00.371Z,18.20
2023-04-15T23:19:26.924Z,17.96
2023-04-15T23:21:53.916Z,18.00
2023-04-15T23:24:20.643Z,18.04
2023-04-15T23:26:47.201Z,18.15
2023-04-15T23:29:14.160Z,17.69
2023-04-15T23:31:41.762Z,17.71
2023-04-15T23:34:08.532Z,17.71
2023-04-15T23:36:35.181Z,17.95
2023-04-15T23:39:01.774Z,17.99
2023-04-15T23:41:28.432Z,17.72
2023-04-15T23:43:55.036Z,17.87
2023-04-15T23:46:21.822Z,17.94
2023-04-15T23:48:49.121Z,17.98
2023-04-15T23:51:16.504Z,17.66
2023-04-15T23:53:43.094Z,17.76
2023-04-15T23:56:09.656Z,17.79
2023-04-15T23:58:36.572Z,17.84
